sensor_id;sensor_type;location;lat;lon;timestamp;P1;durP1;ratioP1;P2;durP2;ratioP2
41249;SDS011;26984;59.928;30.306;2022-11-15T00:01:50;9.18;;;8.27;;
41249;SDS011;26984;59.928;30.306;2022-11-15T00:04:36;9.15;;;8.18;;
41249;SDS011;26984;59.928;30.306;2022-11-15T00:07:22;9.45;;;8.55;;
41249;SDS011;26984;59.928;30.306;2022-11-15T00:10:09;9.80;;;8.90;;
41249;SDS011;26984;59.928;30.306;2022-11-15T00:12:55;10.00;;;9.07;;
41249;SDS011;26984;59.928;30.306;2022-11-15T00:15:41;9.60;;;8.60;;
41249;SDS011;26984;59.928;30.306;2022-11-15T00:18:29;10.68;;;9.60;;
41249;SDS011;26984;59.928;30.306;2022-11-15T00:21:16;8.82;;;7.97;;
41249;SDS011;26984;59.928;30.306;2022-11-15T00:24:03;9.05;;;8.13;;
41249;SDS011;26984;59.928;30.306;2022-11-15T00:26:49;10.98;;;8.25;;
41249;SDS011;26984;59.928;30.306;2022-11-15T00:29:35;10.30;;;8.88;;
41249;SDS011;26984;59.928;30.306;2022-11-15T00:32:23;9.68;;;8.77;;
41249;SDS011;26984;59.928;30.306;2022-11-15T00:35:10;10.48;;;8.80;;
41249;SDS011;26984;59.928;30.306;2022-11-15T00:37:56;9.73;;;8.45;;
41249;SDS011;26984;59.928;30.306;2022-11-15T00:40:43;9.70;;;8.70;;
41249;SDS011;26984;59.928;30.306;2022-11-15T00:43:29;9.32;;;8.43;;
41249;SDS011;26984;59.928;30.306;2022-11-15T00:46:15;9.52;;;8.52;;
41249;SDS011;26984;59.928;30.306;2022-11-15T00:49:02;9.65;;;8.75;;
41249;SDS011;26984;59.928;30.306;2022-11-15T00:51:49;9.00;;;8.10;;
41249;SDS011;26984;59.928;30.306;2022-11-15T00:54:35;9.88;;;8.98;;
41249;SDS011;26984;59.928;30.306;2022-11-15T00:57:21;9.30;;;8.30;;
41249;SDS011;26984;59.928;30.306;2022-11-15T01:00:08;10.15;;;8.80;;
41249;SDS011;26984;59.928;30.306;2022-11-15T01:02:55;10.48;;;9.00;;
41249;SDS011;26984;59.928;30.306;2022-11-15T01:05:41;10.77;;;8.50;;
41249;SDS011;26984;59.928;30.306;2022-11-15T01:08:29;9.07;;;8.18;;
41249;SDS011;26984;59.928;30.306;2022-11-15T01:11:15;9.77;;;8.52;;
41249;SDS011;26984;59.928;30.306;2022-11-15T01:14:01;9.75;;;8.38;;
41249;SDS011;26984;59.928;30.306;2022-11-15T01:16:47;9.25;;;8.35;;
41249;SDS011;26984;59.928;30.306;2022-11-15T01:19:33;9.52;;;8.30;;
41249;SDS011;26984;59.928;30.306;2022-11-15T01:22:20;8.40;;;7.55;;
41249;SDS011;26984;59.928;30.306;2022-11-15T01:25:08;10.02;;;8.15;;
41249;SDS011;26984;59.928;30.306;2022-11-15T01:27:54;8.60;;;7.25;;
41249;SDS011;26984;59.928;30.306;2022-11-15T01:30:40;9.32;;;7.78;;
41249;SDS011;26984;59.928;30.306;2022-11-15T01:33:27;8.90;;;8.00;;
41249;SDS011;26984;59.928;30.306;2022-11-15T01:36:14;8.43;;;7.05;;
41249;SDS011;26984;59.928;30.306;2022-11-15T01:39:02;8.00;;;7.20;;
41249;SDS011;26984;59.928;30.306;2022-11-15T01:41:49;7.18;;;6.47;;
41249;SDS011;26984;59.928;30.306;2022-11-15T01:44:38;7.95;;;7.15;;
41249;SDS011;26984;59.928;30.306;2022-11-15T01:47:28;7.63;;;6.82;;
41249;SDS011;26984;59.928;30.306;2022-11-15T01:50:17;8.00;;;7.30;;
41249;SDS011;26984;59.928;30.306;2022-11-15T01:53:07;8.10;;;7.18;;
41249;SDS011;26984;59.928;30.306;2022-11-15T01:55:55;8.00;;;7.20;;
41249;SDS011;26984;59.928;30.306;2022-11-15T01:58:43;7.97;;;7.18;;
41249;SDS011;26984;59.928;30.306;2022-11-15T02:01:31;7.32;;;6.47;;
41249;SDS011;26984;59.928;30.306;2022-11-15T02:04:20;7.50;;;6.80;;
41249;SDS011;26984;59.928;30.306;2022-11-15T02:07:10;8.65;;;7.82;;
41249;SDS011;26984;59.928;30.306;2022-11-15T02:09:59;7.47;;;6.78;;
41249;SDS011;26984;59.928;30.306;2022-11-15T02:12:49;7.95;;;6.65;;
41249;SDS011;26984;59.928;30.306;2022-11-15T02:15:40;7.63;;;6.30;;
41249;SDS011;26984;59.928;30.306;2022-11-15T02:18:37;5.85;;;5.25;;
41249;SDS011;26984;59.928;30.306;2022-11-15T02:21:29;7.18;;;6.53;;
41249;SDS011;26984;59.928;30.306;2022-11-15T02:30:59;6.32;;;5.75;;
41249;SDS011;26984;59.928;30.306;2022-11-15T02:33:53;6.45;;;5.85;;
41249;SDS011;26984;59.928;30.306;2022-11-15T02:36:45;6.60;;;6.00;;
41249;SDS011;26984;59.928;30.306;2022-11-15T02:39:44;6.95;;;6.35;;
41249;SDS011;26984;59.928;30.306;2022-11-15T02:42:36;6.47;;;5.97;;
41249;SDS011;26984;59.928;30.306;2022-11-15T02:48:37;5.60;;;5.10;;
41249;SDS011;26984;59.928;30.306;2022-11-15T02:51:24;6.00;;;5.40;;
41249;SDS011;26984;59.928;30.306;2022-11-15T02:54:11;5.75;;;5.15;;
41249;SDS011;26984;59.928;30.306;2022-11-15T02:57:00;6.78;;;6.18;;
41249;SDS011;26984;59.928;30.306;2022-11-15T02:59:52;5.50;;;4.90;;
41249;SDS011;26984;59.928;30.306;2022-11-15T03:02:52;5.32;;;4.82;;
41249;SDS011;26984;59.928;30.306;2022-11-15T03:05:53;5.13;;;4.63;;
41249;SDS011;26984;59.928;30.306;2022-11-15T03:08:52;5.30;;;4.80;;
41249;SDS011;26984;59.928;30.306;2022-11-15T03:11:44;5.50;;;5.00;;
41249;SDS011;26984;59.928;30.306;2022-11-15T03:14:36;5.60;;;5.10;;
41249;SDS011;26984;59.928;30.306;2022-11-15T03:17:32;5.55;;;4.93;;
41249;SDS011;26984;59.928;30.306;2022-11-15T03:20:22;5.63;;;5.13;;
41249;SDS011;26984;59.928;30.306;2022-11-15T03:25:59;15.18;;;14.20;;
41249;SDS011;26984;59.928;30.306;2022-11-15T03:28:47;5.25;;;4.75;;
41249;SDS011;26984;59.928;30.306;2022-11-15T03:31:39;7.07;;;5.20;;
41249;SDS011;26984;59.928;30.306;2022-11-15T03:34:34;9.07;;;8.45;;
41249;SDS011;26984;59.928;30.306;2022-11-15T03:37:27;6.30;;;5.50;;
41249;SDS011;26984;59.928;30.306;2022-11-15T03:40:20;5.45;;;4.95;;
41249;SDS011;26984;59.928;30.306;2022-11-15T03:43:13;5.57;;;5.07;;
41249;SDS011;26984;59.928;30.306;2022-11-15T03:46:07;5.65;;;5.15;;
41249;SDS011;26984;59.928;30.306;2022-11-15T03:48:59;5.40;;;4.90;;
41249;SDS011;26984;59.928;30.306;2022-11-15T03:51:51;6.93;;;6.03;;
41249;SDS011;26984;59.928;30.306;2022-11-15T03:54:47;7.28;;;5.85;;
41249;SDS011;26984;59.928;30.306;2022-11-15T03:57:36;8.50;;;7.50;;
41249;SDS011;26984;59.928;30.306;2022-11-15T04:00:22;11.52;;;7.22;;
41249;SDS011;26984;59.928;30.306;2022-11-15T04:03:08;8.32;;;7.32;;
41249;SDS011;26984;59.928;30.306;2022-11-15T04:05:54;9.05;;;7.40;;
41249;SDS011;26984;59.928;30.306;2022-11-15T04:08:41;10.35;;;8.40;;
41249;SDS011;26984;59.928;30.306;2022-11-15T04:11:27;8.15;;;7.03;;
41249;SDS011;26984;59.928;30.306;2022-11-15T04:14:15;9.40;;;7.40;;
41249;SDS011;26984;59.928;30.306;2022-11-15T04:17:01;8.80;;;7.90;;
41249;SDS011;26984;59.928;30.306;2022-11-15T04:19:47;8.85;;;7.20;;
41249;SDS011;26984;59.928;30.306;2022-11-15T04:22:52;7.75;;;6.40;;
41249;SDS011;26984;59.928;30.306;2022-11-15T04:25:57;7.82;;;7.13;;
41249;SDS011;26984;59.928;30.306;2022-11-15T04:28:45;10.50;;;9.60;;
41249;SDS011;26984;59.928;30.306;2022-11-15T04:31:47;9.30;;;8.50;;
41249;SDS011;26984;59.928;30.306;2022-11-15T04:34:33;7.93;;;7.05;;
41249;SDS011;26984;59.928;30.306;2022-11-15T04:37:19;8.60;;;6.35;;
41249;SDS011;26984;59.928;30.306;2022-11-15T04:40:06;8.93;;;7.18;;
41249;SDS011;26984;59.928;30.306;2022-11-15T04:42:53;7.82;;;7.13;;
41249;SDS011;26984;59.928;30.306;2022-11-15T04:45:39;8.25;;;6.72;;
41249;SDS011;26984;59.928;30.306;2022-11-15T04:48:27;9.35;;;8.15;;
41249;SDS011;26984;59.928;30.306;2022-11-15T04:51:14;10.00;;;8.98;;
41249;SDS011;26984;59.928;30.306;2022-11-15T04:54:00;10.80;;;9.70;;
41249;SDS011;26984;59.928;30.306;2022-11-15T04:56:46;10.27;;;9.02;;
41249;SDS011;26984;59.928;30.306;2022-11-15T04:59:33;11.15;;;8.15;;
41249;SDS011;26984;59.928;30.306;2022-11-15T05:02:19;11.60;;;10.35;;
41249;SDS011;26984;59.928;30.306;2022-11-15T05:05:07;10.75;;;9.60;;
41249;SDS011;26984;59.928;30.306;2022-11-15T05:07:53;9.88;;;8.75;;
41249;SDS011;26984;59.928;30.306;2022-11-15T05:10:39;9.73;;;8.73;;
41249;SDS011;26984;59.928;30.306;2022-11-15T05:13:26;10.50;;;8.85;;
41249;SDS011;26984;59.928;30.306;2022-11-15T05:16:13;9.95;;;8.75;;
41249;SDS011;26984;59.928;30.306;2022-11-15T05:19:01;9.80;;;8.80;;
41249;SDS011;26984;59.928;30.306;2022-11-15T05:21:51;11.65;;;10.65;;
41249;SDS011;26984;59.928;30.306;2022-11-15T05:27:26;11.35;;;10.15;;
41249;SDS011;26984;59.928;30.306;2022-11-15T05:30:13;12.35;;;11.15;;
41249;SDS011;26984;59.928;30.306;2022-11-15T05:33:17;12.52;;;11.25;;
41249;SDS011;26984;59.928;30.306;2022-11-15T05:36:06;12.88;;;10.93;;
41249;SDS011;26984;59.928;30.306;2022-11-15T05:39:05;14.32;;;11.77;;
41249;SDS011;26984;59.928;30.306;2022-11-15T05:41:54;13.93;;;12.40;;
41249;SDS011;26984;59.928;30.306;2022-11-15T05:44:46;17.38;;;12.90;;
41249;SDS011;26984;59.928;30.306;2022-11-15T05:50:22;18.80;;;14.57;;
41249;SDS011;26984;59.928;30.306;2022-11-15T05:53:09;18.38;;;13.77;;
41249;SDS011;26984;59.928;30.306;2022-11-15T05:56:06;20.08;;;15.10;;
41249;SDS011;26984;59.928;30.306;2022-11-15T05:58:57;20.13;;;15.48;;
41249;SDS011;26984;59.928;30.306;2022-11-15T06:01:44;20.95;;;14.30;;
41249;SDS011;26984;59.928;30.306;2022-11-15T06:04:31;15.70;;;11.75;;
41249;SDS011;26984;59.928;30.306;2022-11-15T06:07:17;18.77;;;13.00;;
41249;SDS011;26984;59.928;30.306;2022-11-15T06:10:04;12.68;;;10.85;;
41249;SDS011;26984;59.928;30.306;2022-11-15T06:12:57;14.50;;;10.18;;
41249;SDS011;26984;59.928;30.306;2022-11-15T06:15:43;16.27;;;11.38;;
41249;SDS011;26984;59.928;30.306;2022-11-15T06:18:31;14.70;;;11.27;;
41249;SDS011;26984;59.928;30.306;2022-11-15T06:21:18;14.32;;;10.98;;
41249;SDS011;26984;59.928;30.306;2022-11-15T06:24:05;12.68;;;9.80;;
41249;SDS011;26984;59.928;30.306;2022-11-15T06:26:52;14.45;;;11.00;;
41249;SDS011;26984;59.928;30.306;2022-11-15T06:29:40;13.82;;;11.73;;
41249;SDS011;26984;59.928;30.306;2022-11-15T06:32:26;13.93;;;11.00;;
41249;SDS011;26984;59.928;30.306;2022-11-15T06:35:12;20.33;;;11.77;;
41249;SDS011;26984;59.928;30.306;2022-11-15T06:38:01;14.25;;;10.10;;
41249;SDS011;26984;59.928;30.306;2022-11-15T06:40:49;12.07;;;9.15;;
41249;SDS011;26984;59.928;30.306;2022-11-15T06:43:35;9.68;;;7.97;;
41249;SDS011;26984;59.928;30.306;2022-11-15T06:46:23;11.63;;;9.07;;
41249;SDS011;26984;59.928;30.306;2022-11-15T06:49:10;11.35;;;8.60;;
41249;SDS011;26984;59.928;30.306;2022-11-15T06:51:56;11.88;;;9.63;;
41249;SDS011;26984;59.928;30.306;2022-11-15T06:54:42;10.48;;;8.45;;
41249;SDS011;26984;59.928;30.306;2022-11-15T06:57:29;13.00;;;8.45;;
41249;SDS011;26984;59.928;30.306;2022-11-15T07:00:15;13.75;;;8.32;;
41249;SDS011;26984;59.928;30.306;2022-11-15T07:03:04;11.27;;;10.10;;
41249;SDS011;26984;59.928;30.306;2022-11-15T07:05:51;12.25;;;9.43;;
41249;SDS011;26984;59.928;30.306;2022-11-15T07:08:39;12.77;;;9.07;;
41249;SDS011;26984;59.928;30.306;2022-11-15T07:11:25;10.23;;;8.65;;
41249;SDS011;26984;59.928;30.306;2022-11-15T07:14:12;11.80;;;9.70;;
41249;SDS011;26984;59.928;30.306;2022-11-15T07:16:58;11.43;;;10.20;;
41249;SDS011;26984;59.928;30.306;2022-11-15T07:19:46;11.70;;;9.98;;
41249;SDS011;26984;59.928;30.306;2022-11-15T07:22:32;12.13;;;9.38;;
41249;SDS011;26984;59.928;30.306;2022-11-15T07:25:18;13.05;;;10.32;;
41249;SDS011;26984;59.928;30.306;2022-11-15T07:28:04;14.20;;;11.38;;
41249;SDS011;26984;59.928;30.306;2022-11-15T07:30:50;13.23;;;9.82;;
41249;SDS011;26984;59.928;30.306;2022-11-15T07:33:37;12.93;;;10.95;;
41249;SDS011;26984;59.928;30.306;2022-11-15T07:36:24;13.27;;;11.45;;
41249;SDS011;26984;59.928;30.306;2022-11-15T07:39:11;13.90;;;10.88;;
41249;SDS011;26984;59.928;30.306;2022-11-15T07:41:58;11.63;;;10.43;;
41249;SDS011;26984;59.928;30.306;2022-11-15T07:47:45;12.80;;;11.45;;
41249;SDS011;26984;59.928;30.306;2022-11-15T07:50:31;18.30;;;12.55;;
41249;SDS011;26984;59.928;30.306;2022-11-15T07:53:19;13.55;;;10.98;;
41249;SDS011;26984;59.928;30.306;2022-11-15T07:56:05;12.35;;;10.25;;
41249;SDS011;26984;59.928;30.306;2022-11-15T07:58:51;14.77;;;10.65;;
41249;SDS011;26984;59.928;30.306;2022-11-15T08:01:38;14.23;;;9.73;;
41249;SDS011;26984;59.928;30.306;2022-11-15T08:04:24;10.43;;;9.02;;
41249;SDS011;26984;59.928;30.306;2022-11-15T08:07:10;10.95;;;8.00;;
41249;SDS011;26984;59.928;30.306;2022-11-15T08:09:58;10.10;;;8.15;;
41249;SDS011;26984;59.928;30.306;2022-11-15T08:12:45;9.77;;;8.50;;
41249;SDS011;26984;59.928;30.306;2022-11-15T08:15:31;11.27;;;8.50;;
41249;SDS011;26984;59.928;30.306;2022-11-15T08:18:19;10.40;;;7.47;;
41249;SDS011;26984;59.928;30.306;2022-11-15T08:21:05;9.30;;;7.13;;
41249;SDS011;26984;59.928;30.306;2022-11-15T08:23:51;9.18;;;7.13;;
41249;SDS011;26984;59.928;30.306;2022-11-15T08:26:39;9.80;;;7.60;;
41249;SDS011;26984;59.928;30.306;2022-11-15T08:29:25;11.02;;;7.80;;
41249;SDS011;26984;59.928;30.306;2022-11-15T08:32:12;9.20;;;8.07;;
41249;SDS011;26984;59.928;30.306;2022-11-15T08:34:58;8.02;;;6.47;;
41249;SDS011;26984;59.928;30.306;2022-11-15T08:37:44;7.25;;;5.85;;
41249;SDS011;26984;59.928;30.306;2022-11-15T08:40:31;8.35;;;5.70;;
41249;SDS011;26984;59.928;30.306;2022-11-15T08:43:19;6.82;;;5.97;;
41249;SDS011;26984;59.928;30.306;2022-11-15T08:46:05;6.78;;;4.90;;
41249;SDS011;26984;59.928;30.306;2022-11-15T08:48:53;5.22;;;4.68;;
41249;SDS011;26984;59.928;30.306;2022-11-15T08:51:39;7.25;;;5.40;;
41249;SDS011;26984;59.928;30.306;2022-11-15T08:54:25;6.60;;;4.78;;
41249;SDS011;26984;59.928;30.306;2022-11-15T08:57:12;5.30;;;4.25;;
41249;SDS011;26984;59.928;30.306;2022-11-15T08:59:59;6.10;;;4.65;;
41249;SDS011;26984;59.928;30.306;2022-11-15T09:02:46;5.40;;;4.93;;
41249;SDS011;26984;59.928;30.306;2022-11-15T09:05:32;5.32;;;4.38;;
41249;SDS011;26984;59.928;30.306;2022-11-15T09:08:21;8.55;;;4.95;;
41249;SDS011;26984;59.928;30.306;2022-11-15T09:11:08;5.38;;;4.85;;
41249;SDS011;26984;59.928;30.306;2022-11-15T09:13:55;7.40;;;4.65;;
41249;SDS011;26984;59.928;30.306;2022-11-15T09:16:43;6.38;;;4.85;;
41249;SDS011;26984;59.928;30.306;2022-11-15T09:19:29;6.22;;;4.88;;
41249;SDS011;26984;59.928;30.306;2022-11-15T09:22:16;8.43;;;5.40;;
41249;SDS011;26984;59.928;30.306;2022-11-15T09:25:02;6.47;;;4.50;;
41249;SDS011;26984;59.928;30.306;2022-11-15T09:27:49;6.65;;;4.85;;
41249;SDS011;26984;59.928;30.306;2022-11-15T09:30:35;7.57;;;4.75;;
41249;SDS011;26984;59.928;30.306;2022-11-15T09:33:22;6.15;;;4.88;;
41249;SDS011;26984;59.928;30.306;2022-11-15T09:36:09;5.18;;;4.65;;
41249;SDS011;26984;59.928;30.306;2022-11-15T09:38:57;5.30;;;4.65;;
41249;SDS011;26984;59.928;30.306;2022-11-15T09:41:51;4.82;;;4.25;;
41249;SDS011;26984;59.928;30.306;2022-11-15T09:44:52;5.10;;;4.32;;
41249;SDS011;26984;59.928;30.306;2022-11-15T09:47:59;6.45;;;4.40;;
41249;SDS011;26984;59.928;30.306;2022-11-15T09:51:17;4.57;;;4.13;;
41249;SDS011;26984;59.928;30.306;2022-11-15T09:53:53;6.93;;;4.72;;
41249;SDS011;26984;59.928;30.306;2022-11-15T09:56:38;5.38;;;4.47;;
41249;SDS011;26984;59.928;30.306;2022-11-15T09:59:22;5.10;;;4.07;;
41249;SDS011;26984;59.928;30.306;2022-11-15T10:01:59;4.93;;;4.25;;
41249;SDS011;26984;59.928;30.306;2022-11-15T10:04:38;5.45;;;4.30;;
41249;SDS011;26984;59.928;30.306;2022-11-15T10:07:10;6.90;;;5.00;;
41249;SDS011;26984;59.928;30.306;2022-11-15T10:09:45;6.73;;;5.57;;
41249;SDS011;26984;59.928;30.306;2022-11-15T10:12:18;7.25;;;5.65;;
41249;SDS011;26984;59.928;30.306;2022-11-15T10:14:46;8.65;;;5.45;;
41249;SDS011;26984;59.928;30.306;2022-11-15T10:17:40;10.65;;;5.68;;
41249;SDS011;26984;59.928;30.306;2022-11-15T10:20:23;6.78;;;5.93;;
41249;SDS011;26984;59.928;30.306;2022-11-15T10:22:54;8.45;;;6.18;;
41249;SDS011;26984;59.928;30.306;2022-11-15T10:25:26;6.50;;;5.90;;
41249;SDS011;26984;59.928;30.306;2022-11-15T10:27:56;5.80;;;5.20;;
41249;SDS011;26984;59.928;30.306;2022-11-15T10:30:33;6.97;;;5.43;;
41249;SDS011;26984;59.928;30.306;2022-11-15T10:33:10;5.25;;;4.75;;
41249;SDS011;26984;59.928;30.306;2022-11-15T10:35:44;5.40;;;4.90;;
41249;SDS011;26984;59.928;30.306;2022-11-15T10:38:13;9.20;;;5.35;;
41249;SDS011;26984;59.928;30.306;2022-11-15T10:40:41;6.90;;;5.38;;
41249;SDS011;26984;59.928;30.306;2022-11-15T10:43:15;6.97;;;5.50;;
41249;SDS011;26984;59.928;30.306;2022-11-15T10:45:45;5.57;;;4.78;;
41249;SDS011;26984;59.928;30.306;2022-11-15T10:48:22;6.10;;;5.47;;
41249;SDS011;26984;59.928;30.306;2022-11-15T10:50:52;4.95;;;4.40;;
41249;SDS011;26984;59.928;30.306;2022-11-15T10:53:30;6.93;;;5.82;;
41249;SDS011;26984;59.928;30.306;2022-11-15T10:56:03;6.22;;;5.63;;
41249;SDS011;26984;59.928;30.306;2022-11-15T10:58:39;6.10;;;5.50;;
41249;SDS011;26984;59.928;30.306;2022-11-15T11:01:09;10.35;;;9.55;;
41249;SDS011;26984;59.928;30.306;2022-11-15T11:03:39;8.13;;;7.05;;
41249;SDS011;26984;59.928;30.306;2022-11-15T11:06:09;12.15;;;11.32;;
41249;SDS011;26984;59.928;30.306;2022-11-15T11:08:41;10.15;;;9.43;;
41249;SDS011;26984;59.928;30.306;2022-11-15T11:11:21;9.27;;;7.53;;
41249;SDS011;26984;59.928;30.306;2022-11-15T11:13:49;7.03;;;6.43;;
41249;SDS011;26984;59.928;30.306;2022-11-15T11:16:20;5.88;;;5.30;;
41249;SDS011;26984;59.928;30.306;2022-11-15T11:19:02;5.43;;;4.93;;
41249;SDS011;26984;59.928;30.306;2022-11-15T11:21:39;5.80;;;5.20;;
41249;SDS011;26984;59.928;30.306;2022-11-15T11:26:56;5.80;;;5.28;;
41249;SDS011;26984;59.928;30.306;2022-11-15T11:29:52;8.65;;;8.05;;
41249;SDS011;26984;59.928;30.306;2022-11-15T11:32:31;6.38;;;5.88;;
41249;SDS011;26984;59.928;30.306;2022-11-15T11:35:09;7.97;;;7.28;;
41249;SDS011;26984;59.928;30.306;2022-11-15T11:37:43;7.45;;;6.78;;
41249;SDS011;26984;59.928;30.306;2022-11-15T11:40:19;7.88;;;7.15;;
41249;SDS011;26984;59.928;30.306;2022-11-15T11:42:55;9.30;;;8.63;;
41249;SDS011;26984;59.928;30.306;2022-11-15T11:48:39;7.65;;;7.03;;
41249;SDS011;26984;59.928;30.306;2022-11-15T11:51:11;7.25;;;6.55;;
41249;SDS011;26984;59.928;30.306;2022-11-15T11:53:45;7.78;;;6.97;;
41249;SDS011;26984;59.928;30.306;2022-11-15T11:56:22;7.15;;;6.45;;
41249;SDS011;26984;59.928;30.306;2022-11-15T11:58:55;9.25;;;8.60;;
41249;SDS011;26984;59.928;30.306;2022-11-15T12:01:30;9.45;;;8.75;;
41249;SDS011;26984;59.928;30.306;2022-11-15T12:04:03;11.55;;;10.75;;
41249;SDS011;26984;59.928;30.306;2022-11-15T12:06:38;10.00;;;9.27;;
41249;SDS011;26984;59.928;30.306;2022-11-15T12:09:13;11.15;;;10.30;;
41249;SDS011;26984;59.928;30.306;2022-11-15T12:11:50;7.13;;;6.53;;
41249;SDS011;26984;59.928;30.306;2022-11-15T12:14:25;9.60;;;8.90;;
41249;SDS011;26984;59.928;30.306;2022-11-15T12:16:59;9.05;;;8.35;;
41249;SDS011;26984;59.928;30.306;2022-11-15T12:19:27;8.40;;;7.72;;
41249;SDS011;26984;59.928;30.306;2022-11-15T12:22:00;8.77;;;8.18;;
41249;SDS011;26984;59.928;30.306;2022-11-15T12:24:34;12.73;;;11.68;;
41249;SDS011;26984;59.928;30.306;2022-11-15T12:27:19;9.07;;;7.50;;
41249;SDS011;26984;59.928;30.306;2022-11-15T12:29:54;26.30;;;23.52;;
41249;SDS011;26984;59.928;30.306;2022-11-15T12:32:26;14.85;;;13.68;;
41249;SDS011;26984;59.928;30.306;2022-11-15T12:34:56;9.73;;;8.95;;
41249;SDS011;26984;59.928;30.306;2022-11-15T12:37:32;11.18;;;10.27;;
41249;SDS011;26984;59.928;30.306;2022-11-15T12:40:27;22.38;;;20.88;;
41249;SDS011;26984;59.928;30.306;2022-11-15T12:43:03;9.57;;;8.98;;
41249;SDS011;26984;59.928;30.306;2022-11-15T12:45:52;12.18;;;10.52;;
41249;SDS011;26984;59.928;30.306;2022-11-15T13:00:54;10.93;;;10.00;;
41249;SDS011;26984;59.928;30.306;2022-11-15T13:03:25;21.15;;;19.92;;
41249;SDS011;26984;59.928;30.306;2022-11-15T13:08:52;9.30;;;8.50;;
41249;SDS011;26984;59.928;30.306;2022-11-15T13:17:32;6.55;;;5.88;;
41249;SDS011;26984;59.928;30.306;2022-11-15T13:20:16;7.35;;;6.65;;
41249;SDS011;26984;59.928;30.306;2022-11-15T13:22:48;6.80;;;6.20;;
41249;SDS011;26984;59.928;30.306;2022-11-15T13:25:30;8.70;;;7.43;;
41249;SDS011;26984;59.928;30.306;2022-11-15T13:28:19;13.18;;;12.10;;
41249;SDS011;26984;59.928;30.306;2022-11-15T13:30:57;8.52;;;7.68;;
41249;SDS011;26984;59.928;30.306;2022-11-15T13:33:29;12.65;;;11.75;;
41249;SDS011;26984;59.928;30.306;2022-11-15T13:35:59;10.73;;;10.02;;
41249;SDS011;26984;59.928;30.306;2022-11-15T13:38:30;8.02;;;7.43;;
41249;SDS011;26984;59.928;30.306;2022-11-15T13:40:59;6.60;;;6.05;;
41249;SDS011;26984;59.928;30.306;2022-11-15T13:43:38;6.72;;;6.13;;
41249;SDS011;26984;59.928;30.306;2022-11-15T13:46:10;9.07;;;8.18;;
41249;SDS011;26984;59.928;30.306;2022-11-15T13:48:40;8.68;;;7.88;;
41249;SDS011;26984;59.928;30.306;2022-11-15T13:51:10;15.15;;;14.05;;
41249;SDS011;26984;59.928;30.306;2022-11-15T13:53:45;9.00;;;8.30;;
41249;SDS011;26984;59.928;30.306;2022-11-15T13:56:16;9.00;;;8.30;;
41249;SDS011;26984;59.928;30.306;2022-11-15T13:58:46;18.75;;;16.88;;
41249;SDS011;26984;59.928;30.306;2022-11-15T14:01:17;9.15;;;8.43;;
41249;SDS011;26984;59.928;30.306;2022-11-15T14:03:48;8.38;;;7.68;;
41249;SDS011;26984;59.928;30.306;2022-11-15T14:06:20;11.40;;;10.32;;
41249;SDS011;26984;59.928;30.306;2022-11-15T14:09:00;8.90;;;7.90;;
41249;SDS011;26984;59.928;30.306;2022-11-15T14:11:49;6.53;;;5.93;;
41249;SDS011;26984;59.928;30.306;2022-11-15T14:14:19;8.35;;;7.55;;
41249;SDS011;26984;59.928;30.306;2022-11-15T14:16:50;7.65;;;6.80;;
41249;SDS011;26984;59.928;30.306;2022-11-15T14:19:36;8.48;;;7.70;;
41249;SDS011;26984;59.928;30.306;2022-11-15T14:22:13;12.73;;;11.70;;
41249;SDS011;26984;59.928;30.306;2022-11-15T14:24:43;9.63;;;7.53;;
41249;SDS011;26984;59.928;30.306;2022-11-15T14:27:30;9.60;;;6.90;;
41249;SDS011;26984;59.928;30.306;2022-11-15T14:29:59;12.15;;;10.95;;
41249;SDS011;26984;59.928;30.306;2022-11-15T14:32:30;19.42;;;17.52;;
41249;SDS011;26984;59.928;30.306;2022-11-15T14:35:11;10.35;;;7.70;;
41249;SDS011;26984;59.928;30.306;2022-11-15T14:37:42;13.40;;;12.02;;
41249;SDS011;26984;59.928;30.306;2022-11-15T14:40:12;9.90;;;8.90;;
41249;SDS011;26984;59.928;30.306;2022-11-15T14:42:41;12.25;;;8.25;;
41249;SDS011;26984;59.928;30.306;2022-11-15T14:45:11;10.68;;;9.63;;
41249;SDS011;26984;59.928;30.306;2022-11-15T14:47:43;12.63;;;8.55;;
41249;SDS011;26984;59.928;30.306;2022-11-15T14:50:11;10.90;;;9.75;;
41249;SDS011;26984;59.928;30.306;2022-11-15T14:52:40;11.52;;;8.95;;
41249;SDS011;26984;59.928;30.306;2022-11-15T14:55:12;10.77;;;9.55;;
41249;SDS011;26984;59.928;30.306;2022-11-15T14:57:45;11.00;;;9.88;;
41249;SDS011;26984;59.928;30.306;2022-11-15T15:00:13;11.50;;;10.30;;
41249;SDS011;26984;59.928;30.306;2022-11-15T15:02:43;13.57;;;12.38;;
41249;SDS011;26984;59.928;30.306;2022-11-15T15:05:13;13.63;;;11.70;;
41249;SDS011;26984;59.928;30.306;2022-11-15T15:07:43;21.42;;;19.63;;
41249;SDS011;26984;59.928;30.306;2022-11-15T15:12:39;17.17;;;15.70;;
41249;SDS011;26984;59.928;30.306;2022-11-15T15:15:11;12.38;;;11.07;;
41249;SDS011;26984;59.928;30.306;2022-11-15T15:17:41;14.65;;;13.43;;
41249;SDS011;26984;59.928;30.306;2022-11-15T15:20:13;15.32;;;13.98;;
41249;SDS011;26984;59.928;30.306;2022-11-15T15:25:19;11.88;;;10.32;;
41249;SDS011;26984;59.928;30.306;2022-11-15T15:27:49;19.08;;;17.65;;
41249;SDS011;26984;59.928;30.306;2022-11-15T15:30:17;19.00;;;17.60;;
41249;SDS011;26984;59.928;30.306;2022-11-15T15:32:46;10.43;;;9.52;;
41249;SDS011;26984;59.928;30.306;2022-11-15T15:35:20;25.38;;;22.92;;
41249;SDS011;26984;59.928;30.306;2022-11-15T15:37:50;10.05;;;9.05;;
41249;SDS011;26984;59.928;30.306;2022-11-15T15:40:18;8.15;;;7.45;;
41249;SDS011;26984;59.928;30.306;2022-11-15T15:42:47;6.45;;;5.85;;
41249;SDS011;26984;59.928;30.306;2022-11-15T15:45:16;7.25;;;6.65;;
41249;SDS011;26984;59.928;30.306;2022-11-15T15:47:47;6.63;;;5.60;;
41249;SDS011;26984;59.928;30.306;2022-11-15T15:50:20;11.48;;;10.45;;
41249;SDS011;26984;59.928;30.306;2022-11-15T15:52:49;6.68;;;5.85;;
41249;SDS011;26984;59.928;30.306;2022-11-15T15:55:19;6.80;;;6.10;;
41249;SDS011;26984;59.928;30.306;2022-11-15T15:57:47;6.90;;;6.30;;
41249;SDS011;26984;59.928;30.306;2022-11-15T16:00:16;7.22;;;6.47;;
41249;SDS011;26984;59.928;30.306;2022-11-15T16:02:46;7.03;;;6.43;;
41249;SDS011;26984;59.928;30.306;2022-11-15T16:05:14;5.95;;;5.45;;
41249;SDS011;26984;59.928;30.306;2022-11-15T16:07:43;6.72;;;6.13;;
41249;SDS011;26984;59.928;30.306;2022-11-15T16:10:20;6.40;;;5.57;;
41249;SDS011;26984;59.928;30.306;2022-11-15T16:15:19;7.38;;;6.68;;
41249;SDS011;26984;59.928;30.306;2022-11-15T16:17:50;7.05;;;6.05;;
41249;SDS011;26984;59.928;30.306;2022-11-15T16:20:30;6.90;;;6.30;;
41249;SDS011;26984;59.928;30.306;2022-11-15T16:23:00;10.18;;;9.38;;
41249;SDS011;26984;59.928;30.306;2022-11-15T16:25:36;7.72;;;7.05;;
41249;SDS011;26984;59.928;30.306;2022-11-15T16:28:11;9.48;;;8.77;;
41249;SDS011;26984;59.928;30.306;2022-11-15T16:30:44;10.35;;;9.40;;
41249;SDS011;26984;59.928;30.306;2022-11-15T16:33:13;11.73;;;10.82;;
41249;SDS011;26984;59.928;30.306;2022-11-15T16:35:43;9.18;;;8.43;;
41249;SDS011;26984;59.928;30.306;2022-11-15T16:38:13;8.00;;;7.25;;
41249;SDS011;26984;59.928;30.306;2022-11-15T16:40:42;6.97;;;6.38;;
41249;SDS011;26984;59.928;30.306;2022-11-15T16:43:10;7.07;;;6.40;;
41249;SDS011;26984;59.928;30.306;2022-11-15T16:45:38;8.00;;;6.07;;
41249;SDS011;26984;59.928;30.306;2022-11-15T16:48:06;8.95;;;8.07;;
41249;SDS011;26984;59.928;30.306;2022-11-15T16:50:41;6.88;;;6.20;;